Containerships V — DHEW — position and weather

sailwx.info

Track history (hours):
 
Tides and Currents Weather Stations Pressure Air Temp Water Temp Dewpoint Dewpoint Depression Visibility Wind Speed Wind Dir Waves Ship Positions

Containerships V

Last reported at 2018-Feb-20 03:16 UTC. Time now 2018-Feb-20 08:14 UTC.
Position N 28°29' W 016°14'.

Length 151 m; draft 7.8 m.

Type: Cargo ship. MMSI: 211235880.

Date/timePositionNaut miles runAvg speedWind from/ knotsBaromVisibWave heightAir tempDewpointWater temp
2018-Feb-20 03:16N 28°29' W 016°14'0 0.0
2018-Feb-20 02:34N 28°29' W 016°14'0 0.0
2018-Feb-20 02:04N 28°29' W 016°14'0 0.0
2018-Feb-19 22:34N 28°29' W 016°14'0 0.0
2018-Feb-19 21:22N 28°29' W 016°14'0 0.4
2018-Feb-19 20:58N 28°29' W 016°14'6 9.6
2018-Feb-19 20:24N 28°26' W 016°09'715.6
2018-Feb-19 19:58N 28°24' W 016°01'715.7
2018-Feb-19 19:30N 28°21' W 015°53'815.6
2018-Feb-19 19:00N 28°19' W 015°45'815.5
2018-Feb-19 18:30N 28°16' W 015°37'815.8
2018-Feb-19 18:00N 28°14' W 015°29'713.1
2018-Feb-19 17:30N 28°09' W 015°23'2 3.3
2018-Feb-19 17:00N 28°09' W 015°25'0 0.0
2018-Feb-19 16:30N 28°09' W 015°25'0 0.0
2018-Feb-19 16:00N 28°09' W 015°25'0 0.0
2018-Feb-19 15:30N 28°09' W 015°25'0 0.0
2018-Feb-19 14:58N 28°09' W 015°25'0 0.0
2018-Feb-19 14:30N 28°09' W 015°25'0 0.0
2018-Feb-19 14:00N 28°09' W 015°25'0 0.0
2018-Feb-19 13:29N 28°09' W 015°25'0 0.0
2018-Feb-19 13:00N 28°09' W 015°25'0 0.1
2018-Feb-19 12:30N 28°09' W 015°25'0 0.1
2018-Feb-19 12:00N 28°09' W 015°25'0 0.0
2018-Feb-19 11:30N 28°09' W 015°25'0 0.0
2018-Feb-19 11:00N 28°09' W 015°25'0 0.0
2018-Feb-19 10:31N 28°09' W 015°25'1 1.2
2018-Feb-19 10:01N 28°08' W 015°25'3 5.8
2018-Feb-19 09:30N 28°09' W 015°21'918.0
2018-Feb-19 09:00N 28°15' W 015°14'918.7
2018-Feb-19 08:30N 28°22' W 015°07'918.6
2018-Feb-19 08:00N 28°28' W 014°59'918.5
2018-Feb-19 07:30N 28°35' W 014°51'1018.2
2018-Feb-19 06:58N 28°42' W 014°44'84717.2
2018-Feb-17 05:44N 37°07' W 001°14'418.4
2018-Feb-17 05:30N 37°09' W 001°09'918.4
2018-Feb-17 05:00N 37°15' W 001°01'918.4
2018-Feb-17 04:30N 37°21' W 000°52'918.4
2018-Feb-17 04:00N 37°28' W 000°44'917.8
2018-Feb-17 03:30N 37°34' W 000°35'816.9
2018-Feb-17 03:00N 37°41' W 000°31'917.2
2018-Feb-17 02:30N 37°50' W 000°29'917.2
2018-Feb-17 02:00N 37°58' W 000°26'917.7
2018-Feb-17 01:30N 38°07' W 000°24'3 0.2
2018-Feb-16 03:19N 38°10' W 000°23'515.4
2018-Feb-16 03:00N 38°05' W 000°23'816.3
2018-Feb-16 02:30N 37°57' W 000°25'816.8
2018-Feb-16 02:00N 37°49' W 000°26'816.9
2018-Feb-16 01:30N 37°41' W 000°28'816.4
2018-Feb-16 01:00N 37°33' W 000°31'816.0
2018-Feb-16 00:30N 37°27' W 000°38'815.7
2018-Feb-16 00:00N 37°21' W 000°45'815.4
2018-Feb-15 23:30N 37°16' W 000°52'815.5
2018-Feb-15 23:00N 37°11' W 000°59'21716.3
2018-Feb-15 09:41N 35°60' W 005°15'420.9
2018-Feb-15 09:30N 35°59' W 005°20'65417.7
2018-Feb-13 20:35N 29°05' W 015°20'418.2
2018-Feb-13 20:22N 29°02' W 015°24'918.2
2018-Feb-13 19:51N 28°56' W 015°32'918.0
2018-Feb-13 19:20N 28°50' W 015°39'618.0
2018-Feb-13 19:00N 28°46' W 015°45'917.9
2018-Feb-13 18:30N 28°40' W 015°52'918.1
2018-Feb-13 18:00N 28°34' W 016°00'917.0
2018-Feb-13 17:30N 28°29' W 016°08'510.0
2018-Feb-13 17:00N 28°29' W 016°14'0 0.0
2018-Feb-13 16:30N 28°29' W 016°14'0 0.0
2018-Feb-13 16:00N 28°29' W 016°14'0 0.0
2018-Feb-13 15:30N 28°29' W 016°14'0 0.0
2018-Feb-13 15:00N 28°29' W 016°14'0 0.0
2018-Feb-13 14:30N 28°29' W 016°14'0 0.0
2018-Feb-13 13:58N 28°29' W 016°14'0 0.0
2018-Feb-13 13:28N 28°29' W 016°14'0 0.0
2018-Feb-13 12:58N 28°29' W 016°14'0 0.0
2018-Feb-13 12:28N 28°29' W 016°14'0 0.0
2018-Feb-13 11:58N 28°29' W 016°14'0 0.0
2018-Feb-13 11:28N 28°29' W 016°14'0 0.0
2018-Feb-13 10:58N 28°29' W 016°14'0 0.0
2018-Feb-13 10:28N 28°29' W 016°14'0 0.0
2018-Feb-13 09:58N 28°29' W 016°14'0 0.0
2018-Feb-13 09:28N 28°29' W 016°14'0 0.0
2018-Feb-13 08:58N 28°29' W 016°14'0 0.0
2018-Feb-13 08:25N 28°29' W 016°14'0 0.0
2018-Feb-13 07:49N 28°29' W 016°14'0 0.0
2018-Feb-13 07:28N 28°29' W 016°14'0 0.0
2018-Feb-13 06:55N 28°29' W 016°14'0 0.0
2018-Feb-13 06:25N 28°29' W 016°14'0 0.0
2018-Feb-13 05:55N 28°29' W 016°14'0 0.0
2018-Feb-13 05:28N 28°29' W 016°14'0 0.0
2018-Feb-13 04:58N 28°29' W 016°14'0 0.0
2018-Feb-13 04:28N 28°29' W 016°14'0 0.0
2018-Feb-13 03:58N 28°29' W 016°14'0 0.0
2018-Feb-13 03:28N 28°29' W 016°14'0 0.0
2018-Feb-13 02:58N 28°29' W 016°14'0 0.0
2018-Feb-13 02:28N 28°29' W 016°14'0 0.0
2018-Feb-13 01:55N 28°29' W 016°14'0 0.0
2018-Feb-13 01:25N 28°29' W 016°14'0 0.0
2018-Feb-13 00:58N 28°29' W 016°14'0 0.0
2018-Feb-13 00:28N 28°29' W 016°14'0 0.0
2018-Feb-12 23:58N 28°29' W 016°14'0 0.0
2018-Feb-12 23:28N 28°29' W 016°14'0 0.0
2018-Feb-12 22:58N 28°29' W 016°14'0 0.0
2018-Feb-12 22:28N 28°29' W 016°14'0 0.0
2018-Feb-12 21:55N 28°29' W 016°14'1 2.0
2018-Feb-12 21:31N 28°29' W 016°14'5 9.2
2018-Feb-12 21:00N 28°26' W 016°09'815.4
2018-Feb-12 20:31N 28°24' W 016°01'815.4
2018-Feb-12 20:01N 28°21' W 015°53'815.3
2018-Feb-12 19:30N 28°19' W 015°44'815.3
2018-Feb-12 19:01N 28°16' W 015°36'815.3
2018-Feb-12 18:30N 28°14' W 015°28'713.3
2018-Feb-12 18:00N 28°09' W 015°23'2 3.0
2018-Feb-12 17:30N 28°09' W 015°25'0 0.0
2018-Feb-12 17:00N 28°09' W 015°25'0 0.0
2018-Feb-12 16:30N 28°09' W 015°25'0 0.0
2018-Feb-12 15:59N 28°09' W 015°25'0 0.0
2018-Feb-12 15:29N 28°09' W 015°25'0 0.0
2018-Feb-12 14:59N 28°09' W 015°25'0 0.0
2018-Feb-12 14:29N 28°09' W 015°25'0 0.0
2018-Feb-12 13:59N 28°09' W 015°25'0 0.0
2018-Feb-12 13:29N 28°09' W 015°25'0 0.0
2018-Feb-12 12:59N 28°09' W 015°25'0 0.0
2018-Feb-12 12:29N 28°09' W 015°25'0 0.0
2018-Feb-12 11:56N 28°09' W 015°25'0 0.0
2018-Feb-12 11:29N 28°09' W 015°25'0 0.0
2018-Feb-12 10:59N 28°09' W 015°25'0 0.0
2018-Feb-12 10:29N 28°09' W 015°25'0 0.0
2018-Feb-12 09:59N 28°09' W 015°25'0 0.0
2018-Feb-12 09:29N 28°09' W 015°25'0 0.0
2018-Feb-12 08:59N 28°09' W 015°25'0 0.3
2018-Feb-12 08:30N 28°08' W 015°25'2 4.6
2018-Feb-12 08:00N 28°08' W 015°22'917.6
2018-Feb-12 07:30N 28°14' W 015°15'918.3
2018-Feb-12 07:00N 28°20' W 015°08'918.5
2018-Feb-12 06:30N 28°27' W 015°00'918.4
2018-Feb-12 06:00N 28°34' W 014°53'918.4
2018-Feb-12 05:30N 28°40' W 014°46'918.3
2018-Feb-12 05:00N 28°46' W 014°38'918.3
2018-Feb-12 04:30N 28°53' W 014°30'918.7
2018-Feb-12 04:00N 28°59' W 014°23'918.6
2018-Feb-12 03:30N 29°05' W 014°15'918.4
2018-Feb-12 03:00N 29°12' W 014°07'918.4
2018-Feb-12 02:30N 29°18' W 013°60'918.4
2018-Feb-12 02:00N 29°25' W 013°52'918.3
2018-Feb-12 01:30N 29°31' W 013°45'918.2
2018-Feb-12 01:00N 29°37' W 013°37'918.0
2018-Feb-12 00:30N 29°44' W 013°29'3318.0
2018-Feb-11 22:40N 30°06' W 013°02'318.1
2018-Feb-11 22:30N 30°08' W 012°59'918.2
2018-Feb-11 22:00N 30°15' W 012°52'918.0
2018-Feb-11 21:30N 30°21' W 012°44'918.3
2018-Feb-11 21:00N 30°27' W 012°37'918.6
2018-Feb-11 20:30N 30°34' W 012°29'1018.1
2018-Feb-11 19:58N 30°41' W 012°21'918.5
2018-Feb-11 19:27N 30°47' W 012°13'1418.4
2018-Feb-11 18:42N 30°57' W 012°02'44217.9
2018-Feb-10 18:02N 35°58' W 005°34'115.5
2018-Feb-10 17:59N 35°58' W 005°33'715.0
2018-Feb-10 17:30N 35°60' W 005°24'714.7
2018-Feb-10 17:00N 36°02' W 005°16'21416.5
2018-Feb-10 04:01N 37°13' W 001°04'018.1
2018-Feb-10 04:00N 37°14' W 001°04'918.1
2018-Feb-10 03:30N 37°20' W 000°55'  
Track history (hours):
 
Tides and Currents Weather Stations Pressure Air Temp Water Temp Dewpoint Dewpoint Depression Visibility Wind Speed Wind Dir Waves Ship Positions

Containerships V

Last reported at 2018-Feb-20 03:16 UTC. Time now 2018-Feb-20 08:14 UTC.
Position N 28°29' W 016°14'.

Length 151 m; draft 7.8 m.

Type: Cargo ship. MMSI: 211235880.

Date/timePositionNaut miles runAvg speedWind from/ knotsBaromVisibWave heightAir tempDewpointWater temp
2018-Feb-20 03:16N 28°29' W 016°14'0 0.0
2018-Feb-20 02:34N 28°29' W 016°14'0 0.0
2018-Feb-20 02:04N 28°29' W 016°14'0 0.0
2018-Feb-19 22:34N 28°29' W 016°14'0 0.0
2018-Feb-19 21:22N 28°29' W 016°14'0 0.4
2018-Feb-19 20:58N 28°29' W 016°14'6 9.6
2018-Feb-19 20:24N 28°26' W 016°09'715.6
2018-Feb-19 19:58N 28°24' W 016°01'715.7
2018-Feb-19 19:30N 28°21' W 015°53'815.6
2018-Feb-19 19:00N 28°19' W 015°45'815.5
2018-Feb-19 18:30N 28°16' W 015°37'815.8
2018-Feb-19 18:00N 28°14' W 015°29'713.1
2018-Feb-19 17:30N 28°09' W 015°23'2 3.3
2018-Feb-19 17:00N 28°09' W 015°25'0 0.0
2018-Feb-19 16:30N 28°09' W 015°25'0 0.0
2018-Feb-19 16:00N 28°09' W 015°25'0 0.0
2018-Feb-19 15:30N 28°09' W 015°25'0 0.0
2018-Feb-19 14:58N 28°09' W 015°25'0 0.0
2018-Feb-19 14:30N 28°09' W 015°25'0 0.0
2018-Feb-19 14:00N 28°09' W 015°25'0 0.0
2018-Feb-19 13:29N 28°09' W 015°25'0 0.0
2018-Feb-19 13:00N 28°09' W 015°25'0 0.1
2018-Feb-19 12:30N 28°09' W 015°25'0 0.1
2018-Feb-19 12:00N 28°09' W 015°25'0 0.0
2018-Feb-19 11:30N 28°09' W 015°25'0 0.0
2018-Feb-19 11:00N 28°09' W 015°25'0 0.0
2018-Feb-19 10:31N 28°09' W 015°25'1 1.2
2018-Feb-19 10:01N 28°08' W 015°25'3 5.8
2018-Feb-19 09:30N 28°09' W 015°21'918.0
2018-Feb-19 09:00N 28°15' W 015°14'918.7
2018-Feb-19 08:30N 28°22' W 015°07'918.6
2018-Feb-19 08:00N 28°28' W 014°59'918.5
2018-Feb-19 07:30N 28°35' W 014°51'1018.2
2018-Feb-19 06:58N 28°42' W 014°44'84717.2
2018-Feb-17 05:44N 37°07' W 001°14'418.4
2018-Feb-17 05:30N 37°09' W 001°09'918.4
2018-Feb-17 05:00N 37°15' W 001°01'918.4
2018-Feb-17 04:30N 37°21' W 000°52'918.4
2018-Feb-17 04:00N 37°28' W 000°44'917.8
2018-Feb-17 03:30N 37°34' W 000°35'816.9
2018-Feb-17 03:00N 37°41' W 000°31'917.2
2018-Feb-17 02:30N 37°50' W 000°29'917.2
2018-Feb-17 02:00N 37°58' W 000°26'917.7
2018-Feb-17 01:30N 38°07' W 000°24'3 0.2
2018-Feb-16 03:19N 38°10' W 000°23'515.4
2018-Feb-16 03:00N 38°05' W 000°23'816.3
2018-Feb-16 02:30N 37°57' W 000°25'816.8
2018-Feb-16 02:00N 37°49' W 000°26'816.9
2018-Feb-16 01:30N 37°41' W 000°28'816.4
2018-Feb-16 01:00N 37°33' W 000°31'816.0
2018-Feb-16 00:30N 37°27' W 000°38'815.7
2018-Feb-16 00:00N 37°21' W 000°45'815.4
2018-Feb-15 23:30N 37°16' W 000°52'815.5
2018-Feb-15 23:00N 37°11' W 000°59'21716.3
2018-Feb-15 09:41N 35°60' W 005°15'420.9
2018-Feb-15 09:30N 35°59' W 005°20'65417.7
2018-Feb-13 20:35N 29°05' W 015°20'418.2
2018-Feb-13 20:22N 29°02' W 015°24'918.2
2018-Feb-13 19:51N 28°56' W 015°32'918.0
2018-Feb-13 19:20N 28°50' W 015°39'618.0
2018-Feb-13 19:00N 28°46' W 015°45'917.9
2018-Feb-13 18:30N 28°40' W 015°52'918.1
2018-Feb-13 18:00N 28°34' W 016°00'917.0
2018-Feb-13 17:30N 28°29' W 016°08'510.0
2018-Feb-13 17:00N 28°29' W 016°14'0 0.0
2018-Feb-13 16:30N 28°29' W 016°14'0 0.0
2018-Feb-13 16:00N 28°29' W 016°14'0 0.0
2018-Feb-13 15:30N 28°29' W 016°14'0 0.0
2018-Feb-13 15:00N 28°29' W 016°14'0 0.0
2018-Feb-13 14:30N 28°29' W 016°14'0 0.0
2018-Feb-13 13:58N 28°29' W 016°14'0 0.0
2018-Feb-13 13:28N 28°29' W 016°14'0 0.0
2018-Feb-13 12:58N 28°29' W 016°14'0 0.0
2018-Feb-13 12:28N 28°29' W 016°14'0 0.0
2018-Feb-13 11:58N 28°29' W 016°14'0 0.0
2018-Feb-13 11:28N 28°29' W 016°14'0 0.0
2018-Feb-13 10:58N 28°29' W 016°14'0 0.0
2018-Feb-13 10:28N 28°29' W 016°14'0 0.0
2018-Feb-13 09:58N 28°29' W 016°14'0 0.0
2018-Feb-13 09:28N 28°29' W 016°14'0 0.0
2018-Feb-13 08:58N 28°29' W 016°14'0 0.0
2018-Feb-13 08:25N 28°29' W 016°14'0 0.0
2018-Feb-13 07:49N 28°29' W 016°14'0 0.0
2018-Feb-13 07:28N 28°29' W 016°14'0 0.0
2018-Feb-13 06:55N 28°29' W 016°14'0 0.0
2018-Feb-13 06:25N 28°29' W 016°14'0 0.0
2018-Feb-13 05:55N 28°29' W 016°14'0 0.0
2018-Feb-13 05:28N 28°29' W 016°14'0 0.0
2018-Feb-13 04:58N 28°29' W 016°14'0 0.0
2018-Feb-13 04:28N 28°29' W 016°14'0 0.0
2018-Feb-13 03:58N 28°29' W 016°14'0 0.0
2018-Feb-13 03:28N 28°29' W 016°14'0 0.0
2018-Feb-13 02:58N 28°29' W 016°14'0 0.0
2018-Feb-13 02:28N 28°29' W 016°14'0 0.0
2018-Feb-13 01:55N 28°29' W 016°14'0 0.0
2018-Feb-13 01:25N 28°29' W 016°14'0 0.0
2018-Feb-13 00:58N 28°29' W 016°14'0 0.0
2018-Feb-13 00:28N 28°29' W 016°14'0 0.0
2018-Feb-12 23:58N 28°29' W 016°14'0 0.0
2018-Feb-12 23:28N 28°29' W 016°14'0 0.0
2018-Feb-12 22:58N 28°29' W 016°14'0 0.0
2018-Feb-12 22:28N 28°29' W 016°14'0 0.0
2018-Feb-12 21:55N 28°29' W 016°14'1 2.0
2018-Feb-12 21:31N 28°29' W 016°14'5 9.2
2018-Feb-12 21:00N 28°26' W 016°09'815.4
2018-Feb-12 20:31N 28°24' W 016°01'815.4
2018-Feb-12 20:01N 28°21' W 015°53'815.3
2018-Feb-12 19:30N 28°19' W 015°44'815.3
2018-Feb-12 19:01N 28°16' W 015°36'815.3
2018-Feb-12 18:30N 28°14' W 015°28'713.3
2018-Feb-12 18:00N 28°09' W 015°23'2 3.0
2018-Feb-12 17:30N 28°09' W 015°25'0 0.0
2018-Feb-12 17:00N 28°09' W 015°25'0 0.0
2018-Feb-12 16:30N 28°09' W 015°25'0 0.0
2018-Feb-12 15:59N 28°09' W 015°25'0 0.0
2018-Feb-12 15:29N 28°09' W 015°25'0 0.0
2018-Feb-12 14:59N 28°09' W 015°25'0 0.0
2018-Feb-12 14:29N 28°09' W 015°25'0 0.0
2018-Feb-12 13:59N 28°09' W 015°25'0 0.0
2018-Feb-12 13:29N 28°09' W 015°25'0 0.0
2018-Feb-12 12:59N 28°09' W 015°25'0 0.0
2018-Feb-12 12:29N 28°09' W 015°25'0 0.0
2018-Feb-12 11:56N 28°09' W 015°25'0 0.0
2018-Feb-12 11:29N 28°09' W 015°25'0 0.0
2018-Feb-12 10:59N 28°09' W 015°25'0 0.0
2018-Feb-12 10:29N 28°09' W 015°25'0 0.0
2018-Feb-12 09:59N 28°09' W 015°25'0 0.0
2018-Feb-12 09:29N 28°09' W 015°25'0 0.0
2018-Feb-12 08:59N 28°09' W 015°25'0 0.3
2018-Feb-12 08:30N 28°08' W 015°25'2 4.6
2018-Feb-12 08:00N 28°08' W 015°22'917.6
2018-Feb-12 07:30N 28°14' W 015°15'918.3
2018-Feb-12 07:00N 28°20' W 015°08'918.5
2018-Feb-12 06:30N 28°27' W 015°00'918.4
2018-Feb-12 06:00N 28°34' W 014°53'918.4
2018-Feb-12 05:30N 28°40' W 014°46'918.3
2018-Feb-12 05:00N 28°46' W 014°38'918.3
2018-Feb-12 04:30N 28°53' W 014°30'918.7
2018-Feb-12 04:00N 28°59' W 014°23'918.6
2018-Feb-12 03:30N 29°05' W 014°15'918.4
2018-Feb-12 03:00N 29°12' W 014°07'918.4
2018-Feb-12 02:30N 29°18' W 013°60'918.4
2018-Feb-12 02:00N 29°25' W 013°52'918.3
2018-Feb-12 01:30N 29°31' W 013°45'918.2
2018-Feb-12 01:00N 29°37' W 013°37'918.0
2018-Feb-12 00:30N 29°44' W 013°29'3318.0
2018-Feb-11 22:40N 30°06' W 013°02'318.1
2018-Feb-11 22:30N 30°08' W 012°59'918.2
2018-Feb-11 22:00N 30°15' W 012°52'918.0
2018-Feb-11 21:30N 30°21' W 012°44'918.3
2018-Feb-11 21:00N 30°27' W 012°37'918.6
2018-Feb-11 20:30N 30°34' W 012°29'1018.1
2018-Feb-11 19:58N 30°41' W 012°21'918.5
2018-Feb-11 19:27N 30°47' W 012°13'1418.4
2018-Feb-11 18:42N 30°57' W 012°02'44217.9
2018-Feb-10 18:02N 35°58' W 005°34'115.5
2018-Feb-10 17:59N 35°58' W 005°33'715.0
2018-Feb-10 17:30N 35°60' W 005°24'714.7
2018-Feb-10 17:00N 36°02' W 005°16'21416.5
2018-Feb-10 04:01N 37°13' W 001°04'018.1
2018-Feb-10 04:00N 37°14' W 001°04'918.1
2018-Feb-10 03:30N 37°20' W 000°55'  

Dump ship's entire track history